createdAt,value
2022-08-28T00:00:51.742Z,17.95
2022-08-28T00:03:20.915Z,17.91
2022-08-28T00:05:50.128Z,17.85
2022-08-28T00:08:19.402Z,17.78
2022-08-28T00:10:48.756Z,17.76
2022-08-28T00:13:21.492Z,17.70
2022-08-28T00:15:58.210Z,17.70
2022-08-28T00:18:29.396Z,17.63
2022-08-28T00:20:59.495Z,17.61
2022-08-28T00:23:42.236Z,17.66
2022-08-28T00:26:32.923Z,17.65
2022-08-28T00:29:01.257Z,17.56
2022-08-28T00:31:31.873Z,17.55
2022-08-28T00:34:03.314Z,17.64
2022-08-28T00:36:32.599Z,17.63
2022-08-28T00:39:01.904Z,17.57
2022-08-28T00:41:32.550Z,17.56
2022-08-28T00:44:11.487Z,17.56
2022-08-28T00:46:43.885Z,17.58
2022-08-28T00:49:15.866Z,17.61
2022-08-28T00:52:14.252Z,17.65
2022-08-28T00:54:59.369Z,17.65
2022-08-28T00:57:33.177Z,17.67
2022-08-28T01:00:02.602Z,17.64
2022-08-28T01:02:33.745Z,17.62
2022-08-28T01:05:03.314Z,17.64
2022-08-28T01:07:32.701Z,17.65
2022-08-28T01:10:01.682Z,17.65
2022-08-28T01:12:34.679Z,17.63
2022-08-28T01:15:11.917Z,17.57
2022-08-28T01:17:48.543Z,17.52
2022-08-28T01:20:22.956Z,17.50
2022-08-28T01:22:59.497Z,17.48
2022-08-28T01:25:35.369Z,17.48
2022-08-28T01:28:06.823Z,17.46
2022-08-28T01:30:36.351Z,17.50
2022-08-28T01:33:05.715Z,17.52
2022-08-28T01:35:36.578Z,17.52
2022-08-28T01:38:06.099Z,17.51
2022-08-28T01:40:40.235Z,17.44
2022-08-28T01:43:11.973Z,17.38
2022-08-28T01:45:42.520Z,17.36
2022-08-28T01:48:12.992Z,17.34
2022-08-28T01:50:43.233Z,17.32
2022-08-28T01:53:17.586Z,17.28
2022-08-28T01:55:49.440Z,17.27
2022-08-28T01:58:18.622Z,17.26
2022-08-28T02:00:47.948Z,17.28
2022-08-28T02:03:17.154Z,17.27
2022-08-28T02:05:46.160Z,17.29
2022-08-28T02:08:15.428Z,17.32
2022-08-28T02:10:44.834Z,17.34
2022-08-28T02:13:15.257Z,17.33
2022-08-28T02:15:45.344Z,17.31
2022-08-28T02:18:14.673Z,17.25
2022-08-28T02:20:44.161Z,17.21
2022-08-28T02:23:13.622Z,17.22
2022-08-28T02:25:42.760Z,17.18
2022-08-28T02:28:11.808Z,17.15
2022-08-28T02:30:42.438Z,17.18
2022-08-28T02:33:11.541Z,17.19
2022-08-28T02:35:42.691Z,17.19
2022-08-28T02:38:12.611Z,17.27
2022-08-28T02:40:42.508Z,17.27
2022-08-28T02:43:11.588Z,17.26
2022-08-28T02:45:42.075Z,17.30
2022-08-28T02:48:11.994Z,17.38
2022-08-28T02:50:47.262Z,17.47
2022-08-28T02:53:16.347Z,17.51
2022-08-28T02:55:45.465Z,17.69
2022-08-28T02:58:14.471Z,17.84
2022-08-28T03:00:46.196Z,17.97
2022-08-28T03:03:15.655Z,18.10
2022-08-28T03:05:44.917Z,18.18
2022-08-28T03:08:14.186Z,18.33
2022-08-28T03:10:43.291Z,18.40
2022-08-28T03:13:22.947Z,18.40
2022-08-28T03:15:58.142Z,18.46
2022-08-28T03:18:30.224Z,18.53
2022-08-28T03:20:59.181Z,18.60
2022-08-28T03:23:27.385Z,18.70
2022-08-28T03:25:58.635Z,18.77
2022-08-28T03:28:29.877Z,18.82
2022-08-28T03:31:00.521Z,18.78
2022-08-28T03:33:29.995Z,18.86
2022-08-28T03:35:59.593Z,19.07
2022-08-28T03:38:29.156Z,19.20
2022-08-28T03:40:58.231Z,19.20
2022-08-28T03:43:27.850Z,19.47
2022-08-28T03:46:01.019Z,19.59
2022-08-28T03:48:33.022Z,19.63
2022-08-28T03:51:02.501Z,19.61
2022-08-28T03:53:31.801Z,19.64
2022-08-28T03:56:00.995Z,19.60
2022-08-28T03:58:31.332Z,19.56
2022-08-28T04:01:01.834Z,19.50
2022-08-28T04:03:30.857Z,19.51
2022-08-28T04:05:59.894Z,19.38
2022-08-28T04:08:29.658Z,19.41
2022-08-28T04:11:00.978Z,19.43
2022-08-28T04:13:30.523Z,19.64
2022-08-28T04:16:02.874Z,19.72
2022-08-28T04:18:35.857Z,19.62
2022-08-28T04:21:08.046Z,19.77
2022-08-28T04:23:38.291Z,19.92
2022-08-28T04:26:08.222Z,20.11
2022-08-28T04:28:37.750Z,20.01
2022-08-28T04:31:09.316Z,20.03
2022-08-28T04:33:38.740Z,20.09
2022-08-28T04:36:11.241Z,20.14
2022-08-28T04:38:43.866Z,20.16
2022-08-28T04:41:16.301Z,20.12
2022-08-28T04:43:45.599Z,20.19
2022-08-28T04:46:16.823Z,20.18
2022-08-28T04:48:46.477Z,20.21
2022-08-28T04:51:16.335Z,20.12
2022-08-28T04:53:45.598Z,20.31
2022-08-28T04:56:16.100Z,19.90
2022-08-28T04:58:45.605Z,20.10
2022-08-28T05:01:19.711Z,20.24
2022-08-28T05:03:50.273Z,20.41
2022-08-28T05:06:19.196Z,20.45
2022-08-28T05:08:48.201Z,20.55
2022-08-28T05:11:32.771Z,20.81
2022-08-28T05:14:05.032Z,21.06
2022-08-28T05:16:43.095Z,21.18
2022-08-28T05:19:13.185Z,21.37
2022-08-28T05:21:42.872Z,21.50
2022-08-28T05:24:13.941Z,21.53
2022-08-28T05:26:43.236Z,21.57
2022-08-28T05:29:13.149Z,21.80
2022-08-28T05:31:43.714Z,22.18
2022-08-28T05:34:13.240Z,22.21
2022-08-28T05:36:42.909Z,22.22
2022-08-28T05:39:13.438Z,22.26
2022-08-28T05:41:44.509Z,22.55
2022-08-28T05:44:15.663Z,22.51
2022-08-28T05:46:48.720Z,22.90
2022-08-28T05:49:19.713Z,22.95
2022-08-28T05:51:50.190Z,23.19
2022-08-28T05:54:19.527Z,23.74
2022-08-28T05:56:48.793Z,23.90
2022-08-28T05:59:18.252Z,23.45
2022-08-28T06:01:50.529Z,23.65
2022-08-28T06:04:23.884Z,23.71
2022-08-28T06:06:53.430Z,23.69
2022-08-28T06:09:28.734Z,24.13
2022-08-28T06:12:01.703Z,24.26
2022-08-28T06:14:31.850Z,24.21
2022-08-28T06:17:03.827Z,23.78
2022-08-28T06:19:37.214Z,23.62
2022-08-28T06:22:09.669Z,23.36
2022-08-28T06:24:39.145Z,23.21
2022-08-28T06:27:08.294Z,22.85
2022-08-28T06:29:37.447Z,22.70
2022-08-28T06:32:09.183Z,22.52
2022-08-28T06:34:38.293Z,22.36
2022-08-28T06:37:08.046Z,22.43
2022-08-28T06:39:37.154Z,22.50
2022-08-28T06:42:07.006Z,22.57
2022-08-28T06:44:37.724Z,22.49
2022-08-28T06:47:08.109Z,22.60
2022-08-28T06:49:37.255Z,22.67
2022-08-28T06:52:06.261Z,22.67
2022-08-28T06:54:35.200Z,22.78
2022-08-28T06:57:06.431Z,22.74
2022-08-28T06:59:35.410Z,22.77
2022-08-28T07:02:09.019Z,22.83
2022-08-28T07:04:38.165Z,22.96
2022-08-28T07:07:07.554Z,23.00
2022-08-28T07:09:36.561Z,23.26
2022-08-28T07:12:06.836Z,23.32
2022-08-28T07:14:37.817Z,23.45
2022-08-28T07:17:08.406Z,23.41
2022-08-28T07:19:37.472Z,23.66
2022-08-28T07:22:06.543Z,23.92
2022-08-28T07:24:35.942Z,23.88
2022-08-28T07:27:05.697Z,23.81
2022-08-28T07:29:34.672Z,24.06
2022-08-28T07:32:04.134Z,24.59
2022-08-28T07:34:41.216Z,24.73
2022-08-28T07:37:14.699Z,24.62
2022-08-28T07:39:44.231Z,24.71
2022-08-28T07:42:35.652Z,24.74
2022-08-28T07:45:04.620Z,24.72
2022-08-28T07:47:33.648Z,24.98
2022-08-28T07:50:04.151Z,25.49
2022-08-28T07:52:33.164Z,25.87
2022-08-28T07:55:02.191Z,26.02
2022-08-28T07:57:32.650Z,26.39
2022-08-28T08:00:01.838Z,26.58
2022-08-28T08:02:40.357Z,26.58
2022-08-28T08:05:11.493Z,26.69
2022-08-28T08:07:43.815Z,26.90
2022-08-28T08:10:15.216Z,26.89
2022-08-28T08:12:49.640Z,27.14
2022-08-28T08:15:21.535Z,27.05
2022-08-28T08:17:50.530Z,27.26
2022-08-28T08:20:22.407Z,26.93
2022-08-28T08:22:51.402Z,27.28
2022-08-28T08:25:20.378Z,27.38
2022-08-28T08:27:49.372Z,27.59
2022-08-28T08:30:18.735Z,27.66
2022-08-28T08:32:47.731Z,27.81
2022-08-28T08:35:17.358Z,27.81
2022-08-28T08:37:47.720Z,27.63
2022-08-28T08:40:19.621Z,28.04
2022-08-28T08:42:55.748Z,28.05
2022-08-28T08:45:26.817Z,28.43
2022-08-28T08:47:57.297Z,28.64
2022-08-28T08:50:29.441Z,28.92
2022-08-28T08:53:20.288Z,29.32
2022-08-28T08:55:51.406Z,29.67
2022-08-28T08:58:28.972Z,29.53
2022-08-28T09:01:09.648Z,29.52
2022-08-28T09:03:53.721Z,29.63
2022-08-28T09:06:31.185Z,29.61
2022-08-28T09:09:07.202Z,29.55
2022-08-28T09:11:45.029Z,29.31
2022-08-28T09:14:21.722Z,29.12
2022-08-28T09:16:57.763Z,29.30
2022-08-28T09:19:26.928Z,29.50
2022-08-28T09:21:56.466Z,29.81
2022-08-28T09:24:32.038Z,29.83
2022-08-28T09:27:04.242Z,29.54
2022-08-28T09:29:35.598Z,29.58
2022-08-28T09:32:24.634Z,29.67
2022-08-28T09:35:08.457Z,29.72
2022-08-28T09:37:38.643Z,29.57
2022-08-28T09:40:22.113Z,29.62
2022-08-28T09:43:21.562Z,29.68
2022-08-28T09:45:58.444Z,29.63
2022-08-28T09:48:35.819Z,29.47
2022-08-28T09:51:07.101Z,29.53
2022-08-28T09:53:39.191Z,29.49
2022-08-28T09:56:16.679Z,29.68
2022-08-28T09:58:48.178Z,29.63
2022-08-28T10:01:31.361Z,29.49
2022-08-28T10:04:12.434Z,29.70
2022-08-28T10:06:43.503Z,29.92
2022-08-28T10:09:24.086Z,29.96
2022-08-28T10:12:05.903Z,29.91
2022-08-28T10:14:52.562Z,30.11
2022-08-28T10:17:32.300Z,30.10
2022-08-28T10:20:08.764Z,30.18
2022-08-28T10:22:50.184Z,30.06
2022-08-28T10:25:25.002Z,30.20
2022-08-28T10:28:12.555Z,30.49
2022-08-28T10:30:56.540Z,30.88
2022-08-28T10:33:41.966Z,31.31
2022-08-28T10:36:28.774Z,31.82
2022-08-28T10:39:18.824Z,31.66
2022-08-28T10:41:51.094Z,31.19
2022-08-28T10:44:27.659Z,30.94
2022-08-28T10:46:59.359Z,31.33
2022-08-28T10:49:35.427Z,31.36
2022-08-28T10:52:08.704Z,31.22
2022-08-28T10:54:44.567Z,31.13
2022-08-28T10:57:29.525Z,31.14
2022-08-28T11:00:01.870Z,31.38
2022-08-28T11:02:33.584Z,31.23
2022-08-28T11:05:04.127Z,31.00
2022-08-28T11:07:38.613Z,30.85
2022-08-28T11:10:22.914Z,30.66
2022-08-28T11:12:53.581Z,30.52
2022-08-28T11:15:44.868Z,30.63
2022-08-28T11:18:48.199Z,30.55
2022-08-28T11:21:26.496Z,30.69
2022-08-28T11:24:02.367Z,30.38
2022-08-28T11:26:41.016Z,30.31
2022-08-28T11:29:10.884Z,30.43
2022-08-28T11:31:43.512Z,30.41
2022-08-28T11:34:45.375Z,30.30
2022-08-28T11:37:41.695Z,30.38
2022-08-28T11:40:22.557Z,30.26
2022-08-28T11:42:51.776Z,30.18
2022-08-28T11:45:22.999Z,30.23
2022-08-28T11:47:56.853Z,30.03
2022-08-28T11:50:32.641Z,29.87
2022-08-28T11:53:29.081Z,29.75
2022-08-28T11:56:36.963Z,29.80
2022-08-28T11:59:35.152Z,29.82
2022-08-28T12:02:43.243Z,29.97
2022-08-28T12:05:51.606Z,30.57
2022-08-28T12:09:11.861Z,30.92
2022-08-28T12:12:04.934Z,31.00
2022-08-28T12:15:11.495Z,31.03
2022-08-28T12:17:49.537Z,31.09
2022-08-28T12:20:45.784Z,31.36
2022-08-28T12:23:45.804Z,31.66
2022-08-28T12:26:25.331Z,31.98
2022-08-28T12:28:57.868Z,31.98
2022-08-28T12:32:12.968Z,31.71
2022-08-28T12:34:54.083Z,31.67
2022-08-28T12:37:39.688Z,31.54
2022-08-28T12:40:25.014Z,31.49
2022-08-28T12:42:58.330Z,31.35
2022-08-28T12:45:31.988Z,31.26
2022-08-28T12:48:04.190Z,31.35
2022-08-28T12:50:37.269Z,31.30
2022-08-28T12:53:12.953Z,31.40
2022-08-28T12:55:42.322Z,31.55
2022-08-28T12:58:15.038Z,31.42
2022-08-28T13:00:56.441Z,31.62
2022-08-28T13:03:26.101Z,31.89
2022-08-28T13:06:03.585Z,32.04
2022-08-28T13:08:35.480Z,31.75
2022-08-28T13:11:05.298Z,31.63
2022-08-28T13:13:38.201Z,31.62
2022-08-28T13:16:09.198Z,31.66
2022-08-28T13:18:45.293Z,31.80
2022-08-28T13:21:33.823Z,31.73
2022-08-28T13:24:27.550Z,31.89
2022-08-28T13:27:07.048Z,31.90
2022-08-28T13:29:36.919Z,31.74
2022-08-28T13:32:08.953Z,31.65
2022-08-28T13:34:46.050Z,31.72
2022-08-28T13:37:43.149Z,31.41
2022-08-28T13:40:38.219Z,31.52
2022-08-28T13:43:07.667Z,31.49
2022-08-28T13:45:44.021Z,31.64
2022-08-28T13:48:17.571Z,31.55
2022-08-28T13:50:48.957Z,31.61
2022-08-28T13:53:22.200Z,31.56
2022-08-28T13:55:52.679Z,31.50
2022-08-28T13:58:21.794Z,31.41
2022-08-28T14:00:51.962Z,31.44
2022-08-28T14:03:39.196Z,31.52
2022-08-28T14:06:11.749Z,31.50
2022-08-28T14:08:41.988Z,31.49
2022-08-28T14:11:14.239Z,31.50
2022-08-28T14:13:47.161Z,31.44
2022-08-28T14:16:25.334Z,31.33
2022-08-28T14:18:54.946Z,31.22
2022-08-28T14:21:24.628Z,31.11
2022-08-28T14:23:53.735Z,31.02
2022-08-28T14:26:24.205Z,30.82
2022-08-28T14:28:53.289Z,30.64
2022-08-28T14:31:26.363Z,30.48
2022-08-28T14:33:56.221Z,30.32
2022-08-28T14:36:28.926Z,30.19
2022-08-28T14:39:04.027Z,30.10
2022-08-28T14:41:37.127Z,29.82
2022-08-28T14:44:06.454Z,29.72
2022-08-28T14:46:38.087Z,29.42
2022-08-28T14:49:09.957Z,29.19
2022-08-28T14:51:42.494Z,29.01
2022-08-28T14:54:13.098Z,28.82
2022-08-28T14:56:44.365Z,28.61
2022-08-28T14:59:21.879Z,28.39
2022-08-28T15:01:55.298Z,28.23
2022-08-28T15:04:26.205Z,28.07
2022-08-28T15:06:59.360Z,27.93
2022-08-28T15:09:29.308Z,27.81
2022-08-28T15:11:59.861Z,27.67
2022-08-28T15:14:30.535Z,27.57
2022-08-28T15:16:59.672Z,27.46
2022-08-28T15:19:30.105Z,27.37
2022-08-28T15:21:59.941Z,27.27
2022-08-28T15:24:31.582Z,27.20
2022-08-28T15:27:02.016Z,27.13
2022-08-28T15:29:31.133Z,27.08
2022-08-28T15:32:01.653Z,27.01
2022-08-28T15:34:31.281Z,26.86
2022-08-28T15:37:01.626Z,26.81
2022-08-28T15:39:50.539Z,26.74
2022-08-28T15:42:21.103Z,26.54
2022-08-28T15:44:50.100Z,26.36
2022-08-28T15:47:19.084Z,26.21
2022-08-28T15:49:54.805Z,26.08
2022-08-28T15:52:25.377Z,25.98
2022-08-28T15:54:55.382Z,25.89
2022-08-28T15:57:25.793Z,25.86
2022-08-28T15:59:54.761Z,25.76
2022-08-28T16:02:25.603Z,25.76
2022-08-28T16:04:55.737Z,25.69
2022-08-28T16:07:25.172Z,25.72
2022-08-28T16:09:54.624Z,25.70
2022-08-28T16:12:23.672Z,25.63
2022-08-28T16:14:54.454Z,25.53
2022-08-28T16:17:23.397Z,25.46
2022-08-28T16:19:52.347Z,25.38
2022-08-28T16:22:21.962Z,25.33
2022-08-28T16:24:51.829Z,25.21
2022-08-28T16:27:21.547Z,25.12
2022-08-28T16:29:52.907Z,25.02
2022-08-28T16:32:24.038Z,24.96
2022-08-28T16:34:54.812Z,24.84
2022-08-28T16:37:23.857Z,24.76
2022-08-28T16:39:56.170Z,24.74
2022-08-28T16:42:27.661Z,24.63
2022-08-28T16:45:00.287Z,24.50
2022-08-28T16:47:31.479Z,24.44
2022-08-28T16:50:04.423Z,24.31
2022-08-28T16:52:33.598Z,24.13
2022-08-28T16:55:03.024Z,23.99
2022-08-28T16:57:32.328Z,23.93
2022-08-28T17:00:01.548Z,23.81
2022-08-28T17:02:34.191Z,23.71
2022-08-28T17:05:05.188Z,23.64
2022-08-28T17:07:35.123Z,23.57
2022-08-28T17:10:05.278Z,23.45
2022-08-28T17:12:34.460Z,23.38
2022-08-28T17:15:03.686Z,23.30
2022-08-28T17:17:34.511Z,23.24
2022-08-28T17:20:05.079Z,23.21
2022-08-28T17:22:33.171Z,23.13
2022-08-28T17:25:04.405Z,23.10
2022-08-28T17:27:33.632Z,23.02
2022-08-28T17:30:05.010Z,22.99
2022-08-28T17:32:36.215Z,22.96
2022-08-28T17:35:06.577Z,22.83
2022-08-28T17:37:38.550Z,22.80
2022-08-28T17:40:10.650Z,22.79
2022-08-28T17:42:39.905Z,22.70
2022-08-28T17:45:11.043Z,22.61
2022-08-28T17:47:41.767Z,22.58
2022-08-28T17:50:13.063Z,22.49
2022-08-28T17:52:42.193Z,22.44
2022-08-28T17:55:11.490Z,22.43
2022-08-28T17:57:40.778Z,22.51
2022-08-28T18:00:13.264Z,22.43
2022-08-28T18:02:43.855Z,22.35
2022-08-28T18:05:14.562Z,22.27
2022-08-28T18:07:43.898Z,22.27
2022-08-28T18:10:13.723Z,22.25
2022-08-28T18:12:43.561Z,22.34
2022-08-28T18:15:13.740Z,22.30
2022-08-28T18:17:48.118Z,22.33
2022-08-28T18:20:17.707Z,22.38
2022-08-28T18:22:46.893Z,22.41
2022-08-28T18:25:30.647Z,22.39
2022-08-28T18:27:59.721Z,22.38
2022-08-28T18:30:29.144Z,22.34
2022-08-28T18:32:59.959Z,22.28
2022-08-28T18:35:31.772Z,22.26
2022-08-28T18:38:01.998Z,22.30
2022-08-28T18:40:31.618Z,22.30
2022-08-28T18:43:01.053Z,22.27
2022-08-28T18:45:31.577Z,22.25
2022-08-28T18:48:02.994Z,22.36
2022-08-28T18:50:33.044Z,22.44
2022-08-28T18:53:02.372Z,22.55
2022-08-28T18:55:32.849Z,22.55
2022-08-28T18:58:03.006Z,22.59
2022-08-28T19:00:32.724Z,22.58
2022-08-28T19:03:03.343Z,22.51
2022-08-28T19:05:33.628Z,22.49
2022-08-28T19:08:02.816Z,22.44
2022-08-28T19:10:34.392Z,22.44
2022-08-28T19:13:05.278Z,22.41
2022-08-28T19:15:36.116Z,22.42
2022-08-28T19:18:07.545Z,22.39
2022-08-28T19:20:37.042Z,22.46
2022-08-28T19:23:06.610Z,22.46
2022-08-28T19:25:36.419Z,22.52
2022-08-28T19:28:06.055Z,22.58
2022-08-28T19:30:35.784Z,22.58
2022-08-28T19:33:07.394Z,22.53
2022-08-28T19:35:36.742Z,22.50
2022-08-28T19:38:06.074Z,22.47
2022-08-28T19:40:35.699Z,22.49
2022-08-28T19:43:05.920Z,22.50
2022-08-28T19:45:35.788Z,22.43
2022-08-28T19:48:05.314Z,22.42
2022-08-28T19:50:35.976Z,22.41
2022-08-28T19:53:06.216Z,22.40
2022-08-28T19:55:35.904Z,22.31
2022-08-28T19:58:06.729Z,22.23
2022-08-28T20:00:36.983Z,22.10
2022-08-28T20:03:06.521Z,22.06
2022-08-28T20:05:38.208Z,22.08
2022-08-28T20:08:07.842Z,21.97
2022-08-28T20:10:39.257Z,21.86
2022-08-28T20:13:08.632Z,21.79
2022-08-28T20:15:38.216Z,21.80
2022-08-28T20:18:08.561Z,21.80
2022-08-28T20:20:39.869Z,21.65
2022-08-28T20:23:09.668Z,21.63
2022-08-28T20:25:40.604Z,21.50
2022-08-28T20:28:09.781Z,21.49
2022-08-28T20:30:39.898Z,21.49
2022-08-28T20:33:08.891Z,21.46
2022-08-28T20:35:39.393Z,21.38
2022-08-28T20:38:11.310Z,21.32
2022-08-28T20:40:40.423Z,21.35
2022-08-28T20:43:09.491Z,21.38
2022-08-28T20:45:38.478Z,21.36
2022-08-28T20:48:07.526Z,21.38
2022-08-28T20:50:36.648Z,21.39
2022-08-28T20:53:07.101Z,21.34
2022-08-28T20:55:36.112Z,21.39
2022-08-28T20:58:05.149Z,21.37
2022-08-28T21:00:34.313Z,21.38
2022-08-28T21:03:03.382Z,21.34
2022-08-28T21:05:32.946Z,21.37
2022-08-28T21:08:02.351Z,21.38
2022-08-28T21:10:33.300Z,21.36
2022-08-28T21:13:03.156Z,21.31
2022-08-28T21:15:33.200Z,21.28
2022-08-28T21:18:03.600Z,21.23
2022-08-28T21:20:32.815Z,21.14
2022-08-28T21:23:02.243Z,21.08
2022-08-28T21:25:32.641Z,21.05
2022-08-28T21:28:04.440Z,20.92
2022-08-28T21:30:34.340Z,20.79
2022-08-28T21:33:03.462Z,20.75
2022-08-28T21:35:32.965Z,20.59
2022-08-28T21:38:01.955Z,20.52
2022-08-28T21:40:32.744Z,20.40
2022-08-28T21:43:01.836Z,20.31
2022-08-28T21:45:30.891Z,20.29
2022-08-28T21:47:59.894Z,20.21
2022-08-28T21:50:29.248Z,20.10
2022-08-28T21:52:58.272Z,19.99
2022-08-28T21:55:27.257Z,19.84
2022-08-28T21:57:57.586Z,19.79
2022-08-28T22:00:26.715Z,19.78
2022-08-28T22:02:56.072Z,19.77
2022-08-28T22:05:25.284Z,19.83
2022-08-28T22:07:54.242Z,19.86
2022-08-28T22:10:23.575Z,19.87
2022-08-28T22:12:52.530Z,19.85
2022-08-28T22:15:23.048Z,19.78
2022-08-28T22:17:52.143Z,19.74
2022-08-28T22:20:21.227Z,19.76
2022-08-28T22:23:07.382Z,19.66
2022-08-28T22:25:40.871Z,19.60
2022-08-28T22:28:11.326Z,19.60
2022-08-28T22:30:41.944Z,19.57
2022-08-28T22:33:11.241Z,19.56
2022-08-28T22:35:41.016Z,19.54
2022-08-28T22:38:11.223Z,19.52
2022-08-28T22:40:40.267Z,19.47
2022-08-28T22:43:09.231Z,19.38
2022-08-28T22:45:38.209Z,19.35
2022-08-28T22:48:08.719Z,19.31
2022-08-28T22:50:37.832Z,19.29
2022-08-28T22:53:06.855Z,19.20
2022-08-28T22:55:40.127Z,19.20
2022-08-28T22:58:14.449Z,19.15
2022-08-28T23:00:43.806Z,19.17
2022-08-28T23:03:14.297Z,19.15
2022-08-28T23:05:43.574Z,19.08
2022-08-28T23:08:12.570Z,18.99
2022-08-28T23:10:58.687Z,18.97
2022-08-28T23:13:28.794Z,18.88
2022-08-28T23:15:57.974Z,18.81
2022-08-28T23:18:28.731Z,18.74
2022-08-28T23:20:58.690Z,18.74
2022-08-28T23:23:27.905Z,18.72
2022-08-28T23:25:57.010Z,18.74
2022-08-28T23:28:25.995Z,18.73
2022-08-28T23:30:55.001Z,18.66
2022-08-28T23:33:24.281Z,18.56
2022-08-28T23:35:58.840Z,18.52
2022-08-28T23:38:33.629Z,18.48
2022-08-28T23:41:02.655Z,18.47
2022-08-28T23:43:31.841Z,18.41
2022-08-28T23:46:01.373Z,18.34
2022-08-28T23:48:32.155Z,18.25
2022-08-28T23:51:02.457Z,18.20
2022-08-28T23:53:31.707Z,18.21
2022-08-28T23:56:05.079Z,18.30
2022-08-28T23:58:34.690Z,18.27
